Time;durP1;ratioP1;P1;durP2;ratioP2;P2;SDS_P1;SDS_P2;PMS_P1;PMS_P2;Temp;Humidity;BMP_temperature;BMP_pressure;BME280_temperature;BME280_humidity;BME280_pressure;Samples;Min_cycle;Max_cycle;Signal;HPM_P1;HPM_P2
2021/07/31 00:01:00;;;;;;;13.70;12.32;;;36.00;75.90;;;;;;6256886;23;20178;-92
2021/07/31 00:03:33;;;;;;;13.48;12.00;;;36.20;76.30;;;;;;6263710;22;20194;-92
2021/07/31 00:06:06;;;;;;;14.20;12.80;;;36.30;75.90;;;;;;6272629;22;20190;-90
2021/07/31 00:08:37;;;;;;;15.55;12.15;;;36.20;75.60;;;;;;6271836;22;20167;-92
2021/07/31 00:11:09;;;;;;;13.85;12.45;;;36.10;75.80;;;;;;6269527;23;20168;-91
2021/07/31 00:13:40;;;;;;;12.63;11.52;;;36.00;76.30;;;;;;6264976;23;20183;-92
2021/07/31 00:16:11;;;;;;;12.75;11.02;;;35.90;78.60;;;;;;6265203;23;20175;-92
2021/07/31 00:18:44;;;;;;;11.43;10.43;;;35.80;77.60;;;;;;6255520;23;20168;-92
2021/07/31 00:21:15;;;;;;;15.60;9.90;;;35.80;77.60;;;;;;6247598;23;20227;-92
2021/07/31 00:23:46;;;;;;;11.30;10.30;;;35.80;78.00;;;;;;6246908;23;20210;-91
2021/07/31 00:26:17;;;;;;;11.20;10.18;;;35.80;79.00;;;;;;6247191;23;20195;-92
2021/07/31 00:28:48;;;;;;;12.35;9.15;;;35.90;78.00;;;;;;6248372;23;20262;-91
2021/07/31 00:31:19;;;;;;;12.95;9.98;;;35.80;79.70;;;;;;6222382;23;20172;-91
2021/07/31 00:33:53;;;;;;;12.43;11.00;;;35.80;80.30;;;;;;6265287;22;20180;-91
2021/07/31 00:36:25;;;;;;;11.93;10.68;;;35.80;80.40;;;;;;6271496;23;20182;-91
2021/07/31 00:38:56;;;;;;;11.20;10.13;;;35.60;80.20;;;;;;6271280;23;20179;-92
2021/07/31 00:41:28;;;;;;;12.20;10.20;;;35.50;79.60;;;;;;6249982;23;20165;-92
2021/07/31 00:43:58;;;;;;;10.90;9.88;;;35.10;79.80;;;;;;6247943;23;20253;-91
2021/07/31 00:46:30;;;;;;;10.25;9.25;;;34.90;81.70;;;;;;6248284;23;20603;-92
2021/07/31 00:49:02;;;;;;;12.65;9.90;;;34.90;82.00;;;;;;6249042;23;20176;-91
2021/07/31 00:51:34;;;;;;;9.75;8.70;;;35.00;82.80;;;;;;6248965;23;20615;-92
2021/07/31 00:54:06;;;;;;;10.45;9.38;;;34.90;83.20;;;;;;6251283;23;20231;-91
2021/07/31 00:56:38;;;;;;;10.30;9.13;;;35.00;82.20;;;;;;6249885;23;20227;-91
2021/07/31 00:59:09;;;;;;;10.75;9.13;;;35.00;82.20;;;;;;6253786;23;20193;-91
2021/07/31 01:01:42;;;;;;;10.57;8.73;;;34.90;82.90;;;;;;6250290;23;20176;-92
2021/07/31 01:04:16;;;;;;;10.23;9.27;;;34.70;83.70;;;;;;6251437;23;20195;-93
2021/07/31 01:06:49;;;;;;;10.23;9.00;;;34.80;82.90;;;;;;6251978;23;20172;-92
2021/07/31 01:09:20;;;;;;;11.55;8.77;;;34.70;83.50;;;;;;6250449;23;20255;-92
2021/07/31 01:11:53;;;;;;;9.40;8.60;;;34.70;83.40;;;;;;6250627;23;20194;-92
2021/07/31 01:14:25;;;;;;;9.70;8.43;;;34.90;83.50;;;;;;6223483;23;20250;-93
2021/07/31 01:16:58;;;;;;;9.55;8.15;;;35.20;83.70;;;;;;6249530;23;20168;-92
2021/07/31 01:19:33;;;;;;;12.13;8.63;;;35.40;82.80;;;;;;6251251;23;20514;-92
2021/07/31 01:22:06;;;;;;;9.02;7.60;;;35.70;82.90;;;;;;6248184;23;20186;-92
2021/07/31 01:24:38;;;;;;;9.45;7.95;;;35.90;80.40;;;;;;6248430;23;20188;-92
2021/07/31 01:27:09;;;;;;;10.20;7.13;;;36.20;80.00;;;;;;6248585;23;20172;-91
2021/07/31 01:29:41;;;;;;;9.82;6.97;;;36.10;80.90;;;;;;6249830;23;20242;-93
2021/07/31 01:32:16;;;;;;;8.45;7.00;;;35.90;82.30;;;;;;6247271;23;20521;-92
2021/07/31 01:34:47;;;;;;;8.25;6.07;;;36.40;80.60;;;;;;6223031;23;20171;-92
2021/07/31 01:37:21;;;;;;;6.93;6.22;;;36.60;80.50;;;;;;6222626;23;20256;-92
2021/07/31 01:39:52;;;;;;;6.70;5.85;;;36.60;81.30;;;;;;6248158;23;20279;-92
2021/07/31 01:42:24;;;;;;;6.75;4.25;;;36.70;80.90;;;;;;6247032;23;20190;-92
2021/07/31 01:44:55;;;;;;;6.05;4.40;;;36.30;82.30;;;;;;6249037;23;20221;-92
2021/07/31 01:47:27;;;;;;;5.65;4.03;;;36.20;84.20;;;;;;6248642;23;20206;-93
2021/07/31 01:49:58;;;;;;;5.43;3.60;;;36.20;83.20;;;;;;6248209;23;20183;-93
2021/07/31 01:52:32;;;;;;;4.05;3.65;;;35.70;83.00;;;;;;6247995;23;20655;-93
2021/07/31 01:55:04;;;;;;;4.43;3.53;;;35.50;83.40;;;;;;6249234;23;20195;-92
2021/07/31 01:57:36;;;;;;;4.15;3.22;;;35.70;83.00;;;;;;6247960;23;20227;-92
2021/07/31 02:00:09;;;;;;;6.45;3.40;;;35.80;81.60;;;;;;6248235;23;20191;-92
2021/07/31 02:02:41;;;;;;;6.88;3.63;;;35.80;82.90;;;;;;6221653;23;20187;-93
2021/07/31 02:05:13;;;;;;;5.72;3.90;;;35.90;81.80;;;;;;6248275;23;20199;-93
2021/07/31 02:07:46;;;;;;;5.63;3.15;;;35.70;82.40;;;;;;6248875;23;20516;-93
2021/07/31 02:10:17;;;;;;;4.80;3.88;;;35.10;83.20;;;;;;6248358;23;20243;-93
2021/07/31 02:12:49;;;;;;;4.60;4.03;;;34.80;84.50;;;;;;6247392;23;20168;-93
2021/07/31 02:15:21;;;;;;;6.65;4.13;;;34.10;85.40;;;;;;6248704;23;20179;-94
2021/07/31 02:17:53;;;;;;;7.68;4.10;;;33.50;85.00;;;;;;6222763;23;20231;-93
2021/07/31 02:20:25;;;;;;;6.28;3.88;;;33.10;86.00;;;;;;6248911;23;20168;-93
2021/07/31 02:22:58;;;;;;;7.53;3.70;;;32.80;86.40;;;;;;6248547;23;20186;-92
2021/07/31 02:25:30;;;;;;;4.80;3.60;;;32.50;89.00;;;;;;6250393;23;20199;-93
2021/07/31 02:28:01;;;;;;;9.05;4.07;;;32.10;89.00;;;;;;6224524;23;20171;-93
2021/07/31 02:30:32;;;;;;;5.10;4.07;;;31.90;88.60;;;;;;6269196;22;20594;-91
2021/07/31 02:33:04;;;;;;;9.18;4.07;;;31.70;86.30;;;;;;6271127;23;20229;-92
2021/07/31 02:35:36;;;;;;;4.70;3.50;;;31.60;86.00;;;;;;6267495;23;20231;-91
2021/07/31 02:38:09;;;;;;;4.93;3.60;;;31.40;86.60;;;;;;6253784;23;20168;-92
2021/07/31 02:40:41;;;;;;;6.20;3.38;;;31.20;86.60;;;;;;6253323;23;20186;-91
2021/07/31 02:43:12;;;;;;;5.72;3.25;;;31.00;86.90;;;;;;6253021;23;20235;-91
2021/07/31 02:45:44;;;;;;;8.60;3.20;;;30.90;87.60;;;;;;6227717;23;20215;-92
2021/07/31 02:48:16;;;;;;;6.90;3.53;;;30.70;87.20;;;;;;6252864;23;20621;-92
2021/07/31 02:50:47;;;;;;;3.97;3.35;;;30.50;88.30;;;;;;6225108;23;20614;-92
2021/07/31 02:53:21;;;;;;;5.97;3.20;;;30.40;86.80;;;;;;6247535;23;20171;-92
2021/07/31 02:55:52;;;;;;;3.75;3.35;;;30.30;87.60;;;;;;6253890;23;20196;-93
2021/07/31 02:58:23;;;;;;;6.03;3.28;;;30.20;88.00;;;;;;6256644;23;20176;-92
2021/07/31 03:00:55;;;;;;;5.40;3.13;;;30.10;88.10;;;;;;6272737;22;20190;-92
2021/07/31 03:03:27;;;;;;;4.40;3.35;;;30.00;88.00;;;;;;6271445;22;20232;-92
2021/07/31 03:05:59;;;;;;;4.43;3.27;;;29.90;88.50;;;;;;6265273;23;20512;-92
2021/07/31 03:08:33;;;;;;;3.80;3.40;;;29.80;88.30;;;;;;6250244;23;20168;-92
2021/07/31 03:11:06;;;;;;;5.20;3.13;;;29.70;88.70;;;;;;6247621;23;20182;-92
2021/07/31 03:13:38;;;;;;;4.03;2.80;;;29.60;89.50;;;;;;6246965;23;20183;-92
2021/07/31 03:16:09;;;;;;;5.30;3.00;;;29.50;89.10;;;;;;6247434;23;20252;-91
2021/07/31 03:18:43;;;;;;;5.13;2.90;;;29.40;89.00;;;;;;6247355;23;20224;-91
2021/07/31 03:21:14;;;;;;;5.67;3.17;;;29.30;88.80;;;;;;6247244;23;20171;-92
2021/07/31 03:23:48;;;;;;;3.70;3.10;;;29.20;90.00;;;;;;6246475;23;20179;-93
2021/07/31 03:26:20;;;;;;;3.93;2.93;;;29.10;90.50;;;;;;6247699;23;20206;-92
2021/07/31 03:28:52;;;;;;;6.37;3.20;;;28.90;89.70;;;;;;6248549;23;20171;-91
2021/07/31 03:31:24;;;;;;;4.63;3.07;;;28.90;90.00;;;;;;6248566;23;20209;-92
2021/07/31 03:33:56;;;;;;;4.07;2.90;;;28.80;89.80;;;;;;6247229;23;20692;-91
2021/07/31 03:36:28;;;;;;;6.00;3.27;;;28.70;90.10;;;;;;6248819;23;20176;-91
2021/07/31 03:39:04;;;;;;;4.47;2.70;;;28.60;90.10;;;;;;6247203;23;20657;-91
2021/07/31 03:41:36;;;;;;;4.83;2.90;;;28.40;91.00;;;;;;6248131;23;20660;-92
2021/07/31 03:44:07;;;;;;;3.97;3.00;;;28.30;90.70;;;;;;6248794;23;20275;-91
2021/07/31 03:46:46;;;;;;;3.87;3.07;;;28.20;91.00;;;;;;6247629;23;20260;-92
2021/07/31 03:49:17;;;;;;;3.20;2.90;;;28.10;91.00;;;;;;6247267;23;20171;-92
2021/07/31 03:51:48;;;;;;;5.97;2.87;;;28.00;91.40;;;;;;6247368;23;20178;-92
2021/07/31 03:54:21;;;;;;;6.73;3.40;;;28.00;91.80;;;;;;6248061;23;20876;-91
2021/07/31 03:56:53;;;;;;;3.77;3.00;;;27.80;91.70;;;;;;6248148;23;20578;-92
2021/07/31 03:59:25;;;;;;;7.07;3.27;;;27.70;92.50;;;;;;6247591;23;20164;-92
2021/07/31 04:01:56;;;;;;;4.67;2.73;;;27.60;91.80;;;;;;6247492;23;20191;-92
2021/07/31 04:04:30;;;;;;;3.90;3.00;;;27.60;92.10;;;;;;6233506;23;20176;-92
2021/07/31 04:07:02;;;;;;;4.23;2.90;;;27.50;92.30;;;;;;6248806;23;20199;-92
2021/07/31 04:09:37;;;;;;;3.97;2.80;;;27.50;92.50;;;;;;6249305;23;20171;-92
2021/07/31 04:12:09;;;;;;;3.70;2.70;;;27.40;92.50;;;;;;6222134;23;20172;-92
2021/07/31 04:14:40;;;;;;;6.27;3.40;;;27.30;93.00;;;;;;6248589;23;20615;-92
2021/07/31 04:17:13;;;;;;;5.43;2.73;;;27.20;94.30;;;;;;6249751;23;20172;-92
2021/07/31 04:19:44;;;;;;;4.17;3.00;;;27.10;93.30;;;;;;6246901;23;20305;-92
2021/07/31 04:22:15;;;;;;;4.13;2.80;;;27.00;93.80;;;;;;6246157;23;20252;-92
2021/07/31 04:24:49;;;;;;;4.13;2.50;;;26.90;94.20;;;;;;6246913;23;20175;-92
2021/07/31 04:27:21;;;;;;;3.60;2.73;;;26.80;94.10;;;;;;6247883;23;20254;-92
2021/07/31 04:29:52;;;;;;;4.40;2.17;;;26.60;94.10;;;;;;6247262;23;20199;-92
2021/07/31 04:32:24;;;;;;;3.13;2.40;;;26.50;94.20;;;;;;6247784;23;20179;-93
2021/07/31 04:34:55;;;;;;;4.83;2.33;;;26.30;94.10;;;;;;6254227;23;20172;-92
2021/07/31 04:37:27;;;;;;;4.27;2.27;;;26.30;94.50;;;;;;6222880;23;20187;-92
2021/07/31 04:40:01;;;;;;;3.80;2.30;;;26.10;94.70;;;;;;6249477;23;20278;-92
2021/07/31 04:42:32;;;;;;;4.27;2.80;;;26.10;95.50;;;;;;6248809;23;20183;-91
2021/07/31 04:45:03;;;;;;;4.80;3.00;;;25.90;95.40;;;;;;6250193;23;20251;-92
2021/07/31 04:47:40;;;;;;;3.63;2.50;;;25.80;95.70;;;;;;6253155;23;20214;-92
2021/07/31 04:50:16;;;;;;;3.67;2.60;;;25.80;96.00;;;;;;6250040;23;20180;-91
2021/07/31 04:52:48;;;;;;;4.30;2.63;;;25.70;95.80;;;;;;6248316;23;20186;-91
2021/07/31 04:55:22;;;;;;;3.17;2.40;;;25.70;95.90;;;;;;6249714;23;20194;-92
2021/07/31 04:57:54;;;;;;;5.33;2.27;;;25.60;95.90;;;;;;6250885;23;20172;-92
2021/07/31 05:00:26;;;;;;;4.70;2.13;;;25.60;95.80;;;;;;6256956;23;20172;-92
2021/07/31 05:02:57;;;;;;;5.53;2.40;;;25.50;96.00;;;;;;6257763;23;20172;-91
2021/07/31 05:05:30;;;;;;;6.70;2.90;;;25.40;95.80;;;;;;6255632;23;20200;-92
2021/07/31 05:08:02;;;;;;;6.50;3.87;;;25.30;97.00;;;;;;6253625;23;20255;-92
2021/07/31 05:10:40;;;;;;;4.03;2.47;;;25.30;99.90;;;;;;6251197;23;20171;-92
2021/07/31 05:13:11;;;;;;;4.90;2.23;;;25.10;97.50;;;;;;6250178;23;20630;-91
2021/07/31 05:15:44;;;;;;;3.90;1.90;;;25.00;96.90;;;;;;6260336;23;20242;-92
2021/07/31 05:18:16;;;;;;;9.53;3.10;;;24.90;96.70;;;;;;6258444;23;20194;-93
2021/07/31 05:20:49;;;;;;;3.83;2.40;;;24.80;98.80;;;;;;6273102;22;20176;-92
2021/07/31 05:23:20;;;;;;;3.97;2.43;;;24.70;99.80;;;;;;6272731;22;20235;-91
2021/07/31 05:25:56;;;;;;;2.60;2.00;;;24.60;98.10;;;;;;6267443;22;20230;-92
2021/07/31 05:28:27;;;;;;;2.57;1.67;;;24.50;96.00;;;;;;6271120;22;20202;-92
2021/07/31 05:30:59;;;;;;;1.97;1.60;;;24.50;96.30;;;;;;6272017;22;20176;-91
2021/07/31 05:33:31;;;;;;;2.80;1.80;;;24.50;96.20;;;;;;6262809;23;20168;-91
2021/07/31 05:36:10;;;;;;;4.13;1.60;;;24.50;95.80;;;;;;6228074;23;20167;-91
2021/07/31 05:38:41;;;;;;;1.97;1.67;;;24.50;96.80;;;;;;6249591;23;20463;-91
2021/07/31 05:41:20;;;;;;;1.97;1.67;;;24.40;97.00;;;;;;6255240;23;20243;-91
2021/07/31 05:43:51;;;;;;;4.43;2.00;;;24.40;97.70;;;;;;6248293;23;20203;-91
2021/07/31 05:46:23;;;;;;;5.07;1.77;;;24.30;98.30;;;;;;6249478;23;20211;-91
2021/07/31 05:48:54;;;;;;;5.13;1.90;;;24.20;97.70;;;;;;6248651;23;20247;-92
2021/07/31 05:51:25;;;;;;;4.00;2.10;;;24.10;97.60;;;;;;6251081;23;20182;-92
2021/07/31 05:53:55;;;;;;;2.70;2.07;;;24.10;99.20;;;;;;6249457;23;20521;-92
2021/07/31 05:56:28;;;;;;;3.30;1.47;;;24.00;97.00;;;;;;6269170;23;20195;-90
2021/07/31 05:58:59;;;;;;;3.07;1.60;;;23.90;96.10;;;;;;6262959;23;20167;-91
2021/07/31 06:01:34;;;;;;;2.33;1.50;;;23.90;96.00;;;;;;6253051;23;20168;-92
2021/07/31 06:04:06;;;;;;;1.70;1.47;;;23.80;95.80;;;;;;6262558;23;20179;-91
2021/07/31 06:06:42;;;;;;;4.97;1.53;;;23.70;96.10;;;;;;6260317;23;20206;-92
2021/07/31 06:09:13;;;;;;;2.63;1.13;;;23.70;96.30;;;;;;6253503;23;20243;-91
2021/07/31 06:11:45;;;;;;;2.67;1.37;;;23.60;95.50;;;;;;6250118;23;20198;-92
2021/07/31 06:14:16;;;;;;;3.23;1.30;;;23.50;96.40;;;;;;6248426;23;20164;-92
2021/07/31 06:16:47;;;;;;;1.60;1.10;;;23.50;96.50;;;;;;6247598;23;20176;-91
2021/07/31 06:19:18;;;;;;;2.83;1.60;;;23.50;95.80;;;;;;6222810;23;20176;-91
2021/07/31 06:21:49;;;;;;;2.60;1.20;;;23.50;95.90;;;;;;6247893;23;20253;-91
2021/07/31 06:24:20;;;;;;;2.43;0.97;;;23.40;96.40;;;;;;6225072;23;20168;-91
2021/07/31 06:26:53;;;;;;;1.50;1.17;;;23.40;95.20;;;;;;6247757;23;20278;-91
2021/07/31 06:29:24;;;;;;;1.40;1.10;;;23.40;94.70;;;;;;6247896;23;20183;-92
2021/07/31 06:31:55;;;;;;;2.20;1.50;;;23.40;95.30;;;;;;6246118;23;20191;-91
2021/07/31 06:34:26;;;;;;;2.53;1.33;;;23.40;95.70;;;;;;6247767;23;20175;-91
2021/07/31 06:36:57;;;;;;;2.70;1.40;;;23.40;95.90;;;;;;6247769;23;20168;-91
2021/07/31 06:39:28;;;;;;;1.73;1.00;;;23.30;95.60;;;;;;6247478;23;20222;-91
2021/07/31 06:42:01;;;;;;;1.80;1.10;;;23.30;95.40;;;;;;6246831;23;20179;-91
2021/07/31 06:44:32;;;;;;;1.80;1.10;;;23.30;95.80;;;;;;6222164;23;20175;-91
2021/07/31 06:47:03;;;;;;;2.70;1.23;;;23.30;95.40;;;;;;6247167;23;20199;-89
2021/07/31 06:49:34;;;;;;;1.80;1.23;;;23.30;96.50;;;;;;6247560;23;20544;-90
2021/07/31 06:52:06;;;;;;;1.87;1.10;;;23.30;96.00;;;;;;6246750;23;20618;-90
2021/07/31 06:54:36;;;;;;;3.20;1.40;;;23.30;96.50;;;;;;6247341;23;20571;-90
2021/07/31 06:57:10;;;;;;;2.23;1.40;;;23.30;96.40;;;;;;6247748;23;20160;-90
2021/07/31 06:59:41;;;;;;;2.07;1.50;;;23.30;96.50;;;;;;6248208;23;20195;-90
2021/07/31 07:02:12;;;;;;;3.70;1.50;;;23.30;96.70;;;;;;6245918;23;20184;-91
2021/07/31 07:04:43;;;;;;;2.90;1.73;;;23.30;97.40;;;;;;6221299;23;20179;-90
2021/07/31 07:07:14;;;;;;;3.20;1.63;;;23.20;97.60;;;;;;6247595;23;20199;-90
2021/07/31 07:09:45;;;;;;;1.80;1.60;;;23.20;98.10;;;;;;6247608;23;20564;-90
2021/07/31 07:12:20;;;;;;;3.07;1.77;;;23.20;98.10;;;;;;6245936;23;20198;-90
2021/07/31 07:14:52;;;;;;;3.33;1.50;;;23.10;98.20;;;;;;6247642;23;20174;-90
2021/07/31 07:17:23;;;;;;;5.07;1.70;;;23.10;99.00;;;;;;6247203;23;20672;-89
2021/07/31 07:19:54;;;;;;;2.70;1.83;;;23.20;99.30;;;;;;6247033;23;20499;-89
2021/07/31 07:22:25;;;;;;;2.10;1.70;;;23.20;99.00;;;;;;6246064;23;20167;-90
2021/07/31 07:24:56;;;;;;;3.73;1.60;;;23.20;98.90;;;;;;6249011;23;20233;-91
2021/07/31 07:27:29;;;;;;;1.80;1.50;;;23.20;99.30;;;;;;6221571;23;20216;-91
2021/07/31 07:30:01;;;;;;;2.63;1.30;;;23.10;99.90;;;;;;6230923;23;20175;-90
2021/07/31 07:32:31;;;;;;;4.40;1.80;;;23.10;99.50;;;;;;6254438;23;20229;-91
2021/07/31 07:35:03;;;;;;;4.70;1.43;;;23.10;99.20;;;;;;6246887;23;20170;-91
2021/07/31 07:37:34;;;;;;;2.57;1.50;;;23.10;98.90;;;;;;6247735;23;20176;-91
2021/07/31 07:40:06;;;;;;;1.90;1.60;;;23.10;99.40;;;;;;6248533;23;20618;-91
2021/07/31 07:42:40;;;;;;;4.30;1.53;;;23.10;99.10;;;;;;6221395;23;20227;-91
2021/07/31 07:45:12;;;;;;;2.67;1.53;;;23.10;99.60;;;;;;6223090;23;20183;-90
2021/07/31 07:47:43;;;;;;;2.70;1.80;;;23.10;99.30;;;;;;6248301;23;20199;-90
2021/07/31 07:50:15;;;;;;;2.30;1.40;;;23.10;99.40;;;;;;6262871;23;20167;-90
2021/07/31 07:52:46;;;;;;;1.47;1.37;;;23.10;99.00;;;;;;6271177;22;20164;-90
2021/07/31 07:55:17;;;;;;;1.27;1.17;;;23.10;99.70;;;;;;6271811;22;20249;-91
2021/07/31 07:57:51;;;;;;;2.63;1.60;;;23.10;98.80;;;;;;6251142;23;20182;-90
2021/07/31 08:00:21;;;;;;;2.40;1.50;;;23.10;98.50;;;;;;6249962;23;20172;-90
2021/07/31 08:02:53;;;;;;;1.93;1.40;;;23.10;98.60;;;;;;6247449;23;20191;-91
2021/07/31 08:05:24;;;;;;;3.23;1.73;;;23.10;99.30;;;;;;6248859;23;20183;-90
2021/07/31 08:07:57;;;;;;;2.13;1.33;;;23.10;98.30;;;;;;6248595;23;20199;-90
2021/07/31 08:10:28;;;;;;;3.03;1.20;;;23.10;97.40;;;;;;6248954;23;20574;-90
2021/07/31 08:13:01;;;;;;;2.97;1.33;;;23.10;97.40;;;;;;6247830;23;20198;-88
2021/07/31 08:15:32;;;;;;;1.43;1.17;;;23.10;98.50;;;;;;6248964;23;20178;-91
2021/07/31 08:18:03;;;;;;;2.53;1.17;;;23.10;98.00;;;;;;6248777;23;20187;-90
2021/07/31 08:20:35;;;;;;;3.57;1.30;;;23.10;97.80;;;;;;6249166;23;20178;-91
2021/07/31 08:23:07;;;;;;;4.13;1.33;;;23.00;97.50;;;;;;6248020;23;20614;-90
2021/07/31 08:25:38;;;;;;;3.90;1.20;;;23.10;97.50;;;;;;6249156;23;20172;-90
2021/07/31 08:28:11;;;;;;;4.33;1.13;;;23.00;97.30;;;;;;6249234;23;20285;-91
2021/07/31 08:30:42;;;;;;;2.50;1.00;;;23.00;97.50;;;;;;6249667;23;20186;-91
2021/07/31 08:33:13;;;;;;;2.77;1.30;;;23.00;97.90;;;;;;6248017;23;20183;-90
2021/07/31 08:35:45;;;;;;;2.70;1.30;;;23.00;97.40;;;;;;6222750;23;20221;-90
2021/07/31 08:38:16;;;;;;;1.80;1.20;;;23.00;97.60;;;;;;6222741;23;20183;-90
2021/07/31 08:40:47;;;;;;;3.93;1.57;;;23.00;97.70;;;;;;6249125;23;20202;-90
2021/07/31 08:43:20;;;;;;;2.47;1.47;;;23.00;98.00;;;;;;6247831;23;20241;-90
2021/07/31 08:45:51;;;;;;;3.80;1.40;;;23.00;98.00;;;;;;6250584;23;20175;-90
2021/07/31 08:48:27;;;;;;;2.33;1.50;;;23.00;98.00;;;;;;6250190;23;20670;-90
2021/07/31 08:51:01;;;;;;;2.33;1.57;;;23.00;98.50;;;;;;6251156;23;20608;-90
2021/07/31 08:53:32;;;;;;;2.80;1.23;;;23.00;98.80;;;;;;6249410;23;20530;-89
2021/07/31 08:56:03;;;;;;;2.57;1.60;;;23.00;98.30;;;;;;6250830;23;20187;-90
2021/07/31 08:58:40;;;;;;;4.03;1.50;;;23.00;98.00;;;;;;6249836;23;20171;-89
2021/07/31 09:01:11;;;;;;;2.87;1.40;;;23.00;97.90;;;;;;6250636;23;20179;-90
2021/07/31 09:03:47;;;;;;;2.30;1.50;;;23.00;97.70;;;;;;6247263;23;20512;-91
2021/07/31 09:06:28;;;;;;;3.10;1.70;;;23.00;98.20;;;;;;6249066;23;20175;-90
2021/07/31 09:08:59;;;;;;;1.93;1.43;;;23.00;98.60;;;;;;6249058;23;20233;-90
2021/07/31 09:11:32;;;;;;;2.27;1.20;;;23.00;98.20;;;;;;6248009;23;20186;-91
2021/07/31 09:14:15;;;;;;;2.23;1.40;;;23.00;98.20;;;;;;6248640;23;20214;-90
2021/07/31 09:16:47;;;;;;;2.17;1.20;;;23.00;98.10;;;;;;6248342;23;20164;-90
2021/07/31 09:19:20;;;;;;;2.87;1.40;;;23.00;97.40;;;;;;6248276;23;20196;-90
2021/07/31 09:21:52;;;;;;;3.53;1.30;;;23.00;97.40;;;;;;6246739;23;20179;-90
2021/07/31 09:24:27;;;;;;;2.43;1.47;;;23.00;97.70;;;;;;6248530;23;20172;-90
2021/07/31 09:26:59;;;;;;;2.00;1.23;;;23.00;97.60;;;;;;6248487;23;20175;-90
2021/07/31 09:29:35;;;;;;;3.20;1.33;;;22.90;97.00;;;;;;6248195;23;20196;-90
2021/07/31 09:32:08;;;;;;;2.10;1.30;;;22.90;97.50;;;;;;6247653;23;20195;-90
2021/07/31 09:34:40;;;;;;;1.93;1.40;;;22.90;97.20;;;;;;6248333;23;20221;-90
2021/07/31 09:37:14;;;;;;;2.63;1.03;;;22.90;97.10;;;;;;6249080;23;20179;-90
2021/07/31 09:39:54;;;;;;;3.63;1.40;;;22.80;96.90;;;;;;6248352;23;20195;-89
2021/07/31 09:42:32;;;;;;;2.77;1.47;;;22.80;97.00;;;;;;6246854;23;20179;-90
2021/07/31 09:45:07;;;;;;;2.30;1.23;;;22.80;97.10;;;;;;6248089;23;20186;-90
2021/07/31 09:47:39;;;;;;;1.67;1.10;;;22.80;96.90;;;;;;6247091;23;20175;-90
2021/07/31 09:50:11;;;;;;;2.30;1.63;;;22.80;96.80;;;;;;6248354;23;20279;-90
2021/07/31 09:52:43;;;;;;;3.10;1.47;;;22.80;97.00;;;;;;6247254;23;20561;-90
2021/07/31 09:55:14;;;;;;;2.80;1.57;;;22.80;97.00;;;;;;6248511;23;20195;-90
2021/07/31 09:57:45;;;;;;;2.87;1.60;;;22.80;97.40;;;;;;6248077;23;20183;-90
2021/07/31 10:00:21;;;;;;;2.23;1.60;;;22.80;97.10;;;;;;6248592;23;20234;-90
2021/07/31 10:02:53;;;;;;;1.83;1.23;;;22.80;97.20;;;;;;6222161;23;20229;-90
2021/07/31 10:05:24;;;;;;;2.70;1.43;;;22.80;96.90;;;;;;6249044;23;20246;-90
2021/07/31 10:07:57;;;;;;;4.17;1.50;;;22.80;97.00;;;;;;6249757;23;20623;-91
2021/07/31 10:10:28;;;;;;;2.07;1.40;;;22.70;96.80;;;;;;6249755;23;20172;-91
2021/07/31 10:13:01;;;;;;;3.43;1.47;;;22.70;96.60;;;;;;6249586;23;20187;-91
2021/07/31 10:15:34;;;;;;;1.33;1.10;;;22.70;96.70;;;;;;6264923;23;20214;-91
2021/07/31 10:18:12;;;;;;;2.60;1.13;;;22.70;96.60;;;;;;6272624;22;20164;-94
2021/07/31 10:20:43;;;;;;;2.83;1.17;;;22.70;96.50;;;;;;6272750;22;20163;-91
2021/07/31 10:23:15;;;;;;;2.27;1.00;;;22.60;96.80;;;;;;6252886;23;20176;-90
2021/07/31 10:26:10;;;;;;;1.83;1.20;;;22.70;96.80;;;;;;6252691;23;20168;-90
2021/07/31 10:28:41;;;;;;;2.00;1.27;;;22.60;96.70;;;;;;6250001;23;20204;-90
2021/07/31 10:31:36;;;;;;;4.77;1.57;;;22.60;96.40;;;;;;6250752;23;20176;-91
2021/07/31 10:34:07;;;;;;;2.60;1.20;;;22.50;97.10;;;;;;6249932;23;20185;-90
2021/07/31 10:36:39;;;;;;;3.93;1.20;;;22.50;96.70;;;;;;6250678;23;20225;-90
2021/07/31 10:39:39;;;;;;;1.80;1.13;;;22.50;97.20;;;;;;6249926;23;20216;-90
2021/07/31 10:42:10;;;;;;;1.70;1.37;;;22.50;97.00;;;;;;6248904;23;20186;-90
2021/07/31 10:45:21;;;;;;;3.50;1.30;;;22.50;96.50;;;;;;6256509;23;20191;-90
2021/07/31 10:47:55;;;;;;;2.37;1.00;;;22.50;96.00;;;;;;6270634;23;20227;-90
2021/07/31 10:50:41;;;;;;;3.30;1.43;;;22.40;96.20;;;;;;6270566;23;20206;-91
2021/07/31 10:53:14;;;;;;;2.90;1.30;;;22.50;97.40;;;;;;6269196;23;20171;-90
2021/07/31 10:56:05;;;;;;;1.47;1.20;;;22.40;97.00;;;;;;6261389;23;20182;-89
2021/07/31 10:58:37;;;;;;;2.60;1.30;;;22.40;97.10;;;;;;6256477;23;20171;-90
2021/07/31 11:01:24;;;;;;;3.00;1.07;;;22.40;97.10;;;;;;6256583;23;20186;-90
2021/07/31 11:03:57;;;;;;;2.60;1.50;;;22.40;96.90;;;;;;6248934;23;20207;-90
2021/07/31 11:06:28;;;;;;;1.70;1.13;;;22.40;96.80;;;;;;6222889;23;20183;-91
2021/07/31 11:09:16;;;;;;;1.73;1.33;;;22.40;96.60;;;;;;6247515;23;20203;-90
2021/07/31 11:11:47;;;;;;;15.13;1.83;;;22.40;96.80;;;;;;6247205;23;20461;-90
2021/07/31 11:14:19;;;;;;;2.73;1.30;;;22.40;97.10;;;;;;6221917;23;20231;-90
2021/07/31 11:17:20;;;;;;;3.60;1.50;;;22.40;96.70;;;;;;6250225;22;20176;-91
2021/07/31 11:19:54;;;;;;;2.70;1.57;;;22.40;96.60;;;;;;6221806;23;20182;-90
2021/07/31 11:22:29;;;;;;;3.43;1.40;;;22.40;96.80;;;;;;6246714;23;20193;-90
2021/07/31 11:25:00;;;;;;;4.20;1.37;;;22.40;96.50;;;;;;6247526;23;20182;-90
2021/07/31 11:27:31;;;;;;;2.13;1.17;;;22.40;96.80;;;;;;6220281;23;20195;-90
2021/07/31 11:30:03;;;;;;;2.70;1.20;;;22.40;96.70;;;;;;6249129;23;20207;-90
2021/07/31 11:32:38;;;;;;;1.57;1.10;;;22.40;96.80;;;;;;6246306;23;20179;-89
2021/07/31 11:35:27;;;;;;;1.60;1.20;;;22.30;96.40;;;;;;6247652;23;20201;-89
2021/07/31 11:37:58;;;;;;;5.10;1.50;;;22.30;96.60;;;;;;6247156;23;20195;-90
2021/07/31 11:40:30;;;;;;;2.83;1.00;;;22.30;95.70;;;;;;6246781;23;20202;-88
2021/07/31 11:43:01;;;;;;;2.43;1.40;;;22.30;95.90;;;;;;6245510;23;20199;-90
2021/07/31 11:45:32;;;;;;;2.80;1.20;;;22.30;96.60;;;;;;6247108;23;20175;-90
2021/07/31 11:48:09;;;;;;;2.53;1.30;;;22.30;96.50;;;;;;6247140;23;20175;-90
2021/07/31 11:51:02;;;;;;;2.47;1.07;;;22.30;96.00;;;;;;6247157;23;20223;-90
2021/07/31 11:53:33;;;;;;;1.63;1.20;;;22.30;96.00;;;;;;6246175;23;20238;-90
2021/07/31 11:56:15;;;;;;;1.30;1.10;;;22.20;96.50;;;;;;6247186;23;20649;-90
2021/07/31 11:58:48;;;;;;;2.00;1.30;;;22.20;96.00;;;;;;6247637;23;20195;-90
2021/07/31 12:01:19;;;;;;;4.30;1.37;;;22.10;96.40;;;;;;6255821;23;20206;-90
2021/07/31 12:03:52;;;;;;;2.93;1.40;;;22.10;97.70;;;;;;6253247;23;20179;-91
2021/07/31 12:06:39;;;;;;;2.47;1.10;;;22.10;97.90;;;;;;6246643;23;20255;-91
2021/07/31 12:09:23;;;;;;;1.63;1.20;;;22.10;97.40;;;;;;6247551;23;20191;-90
2021/07/31 12:11:56;;;;;;;1.53;1.30;;;22.10;97.20;;;;;;6246397;23;20190;-90
2021/07/31 12:14:37;;;;;;;1.97;1.10;;;22.10;98.30;;;;;;6247123;23;20199;-91
2021/07/31 12:17:19;;;;;;;1.67;1.00;;;22.10;98.30;;;;;;6246437;23;20171;-90
2021/07/31 12:19:56;;;;;;;2.87;1.40;;;22.00;97.40;;;;;;6247063;23;20237;-90
2021/07/31 12:22:31;;;;;;;1.40;1.07;;;22.00;98.40;;;;;;6246840;23;20179;-90
2021/07/31 12:25:18;;;;;;;1.87;1.40;;;22.00;97.40;;;;;;6247384;23;20175;-90
2021/07/31 12:28:00;;;;;;;2.60;1.10;;;22.00;97.50;;;;;;6248991;23;20171;-90
2021/07/31 12:30:39;;;;;;;2.77;1.30;;;22.00;98.20;;;;;;6262938;23;20207;-90
2021/07/31 12:33:19;;;;;;;2.00;1.40;;;22.00;97.30;;;;;;6224533;23;20187;-89
2021/07/31 12:35:59;;;;;;;2.20;1.23;;;22.00;97.80;;;;;;6249918;23;20171;-90
2021/07/31 12:38:32;;;;;;;2.63;1.23;;;22.00;97.40;;;;;;6249803;23;20171;-90
2021/07/31 12:41:05;;;;;;;2.23;1.40;;;22.00;97.20;;;;;;6270639;23;20220;-89
2021/07/31 12:43:36;;;;;;;1.43;1.17;;;22.00;97.90;;;;;;6271510;22;20172;-90
2021/07/31 12:46:07;;;;;;;1.57;1.27;;;21.90;98.30;;;;;;6267510;22;20190;-90
2021/07/31 12:48:37;;;;;;;1.60;1.30;;;21.90;97.60;;;;;;6247433;23;20464;-91
2021/07/31 12:51:10;;;;;;;1.77;1.30;;;21.90;98.00;;;;;;6246394;23;20223;-90
2021/07/31 12:53:43;;;;;;;2.37;1.40;;;21.90;98.20;;;;;;6247645;23;20198;-90
2021/07/31 12:56:15;;;;;;;2.20;1.30;;;21.90;97.70;;;;;;6248382;23;20210;-89
2021/07/31 12:58:47;;;;;;;3.70;1.33;;;21.90;98.60;;;;;;6249001;23;20167;-90
2021/07/31 13:01:18;;;;;;;2.00;1.43;;;21.80;96.90;;;;;;6222558;23;20225;-90
2021/07/31 13:03:51;;;;;;;3.03;1.80;;;21.80;97.10;;;;;;6222036;23;20171;-89
2021/07/31 13:06:22;;;;;;;3.33;1.47;;;21.80;97.60;;;;;;6248943;23;20176;-90
2021/07/31 13:08:54;;;;;;;2.47;1.50;;;21.80;98.60;;;;;;6222411;23;20198;-90
2021/07/31 13:11:25;;;;;;;2.03;1.50;;;21.80;97.80;;;;;;6247903;23;20227;-91
2021/07/31 13:13:56;;;;;;;2.63;1.60;;;21.90;97.90;;;;;;6223147;23;20615;-91
2021/07/31 13:16:28;;;;;;;2.90;1.83;;;21.90;97.90;;;;;;6248472;23;20172;-90